sensor_id;sensor_type;location;lat;lon;timestamp;pressure;altitude;pressure_sealevel;temperature;humidity
3428;BME280;1727;42.624;23.406;2023-01-31T00:01:10;94404.91;;;1.66;82.33
3428;BME280;1727;42.624;23.406;2023-01-31T00:03:37;94412.47;;;1.69;81.98
3428;BME280;1727;42.624;23.406;2023-01-31T00:06:14;94422.25;;;1.64;81.89
3428;BME280;1727;42.624;23.406;2023-01-31T00:08:42;94433.69;;;1.60;81.46
3428;BME280;1727;42.624;23.406;2023-01-31T00:11:09;94432.03;;;1.59;81.60
3428;BME280;1727;42.624;23.406;2023-01-31T00:13:37;94428.72;;;1.57;82.26
3428;BME280;1727;42.624;23.406;2023-01-31T00:16:04;94430.66;;;1.38;82.72
3428;BME280;1727;42.624;23.406;2023-01-31T00:18:31;94435.75;;;1.39;83.08
3428;BME280;1727;42.624;23.406;2023-01-31T00:21:04;94423.19;;;1.33;83.45
3428;BME280;1727;42.624;23.406;2023-01-31T00:23:32;94430.94;;;1.33;83.74
3428;BME280;1727;42.624;23.406;2023-01-31T00:26:09;94416.00;;;1.38;83.75
3428;BME280;1727;42.624;23.406;2023-01-31T00:28:36;94412.22;;;1.44;83.38
3428;BME280;1727;42.624;23.406;2023-01-31T00:31:03;94411.81;;;1.51;83.11
3428;BME280;1727;42.624;23.406;2023-01-31T00:33:30;94413.38;;;1.54;82.64
3428;BME280;1727;42.624;23.406;2023-01-31T00:35:57;94418.28;;;1.59;83.33
3428;BME280;1727;42.624;23.406;2023-01-31T00:38:24;94425.22;;;1.72;83.00
3428;BME280;1727;42.624;23.406;2023-01-31T00:40:53;94425.00;;;1.77;83.48
3428;BME280;1727;42.624;23.406;2023-01-31T00:43:20;94438.38;;;1.83;83.00
3428;BME280;1727;42.624;23.406;2023-01-31T00:45:46;94434.59;;;1.89;82.58
3428;BME280;1727;42.624;23.406;2023-01-31T00:48:13;94428.22;;;1.95;82.37
3428;BME280;1727;42.624;23.406;2023-01-31T00:50:40;94428.06;;;1.98;82.16
3428;BME280;1727;42.624;23.406;2023-01-31T00:53:07;94426.06;;;2.03;82.19
3428;BME280;1727;42.624;23.406;2023-01-31T00:55:34;94424.03;;;2.08;82.70
3428;BME280;1727;42.624;23.406;2023-01-31T00:58:02;94427.72;;;2.04;82.53
3428;BME280;1727;42.624;23.406;2023-01-31T01:00:32;94417.53;;;2.01;82.52
3428;BME280;1727;42.624;23.406;2023-01-31T01:02:59;94409.94;;;1.98;82.13
3428;BME280;1727;42.624;23.406;2023-01-31T01:05:26;94414.19;;;1.99;82.60
3428;BME280;1727;42.624;23.406;2023-01-31T01:07:53;94407.94;;;2.03;81.99
3428;BME280;1727;42.624;23.406;2023-01-31T01:10:20;94409.59;;;2.04;82.89
3428;BME280;1727;42.624;23.406;2023-01-31T01:12:47;94412.34;;;2.01;82.60
3428;BME280;1727;42.624;23.406;2023-01-31T01:15:15;94415.31;;;1.95;82.56
3428;BME280;1727;42.624;23.406;2023-01-31T01:17:42;94423.25;;;1.92;82.16
3428;BME280;1727;42.624;23.406;2023-01-31T01:20:10;94426.56;;;1.94;82.55
3428;BME280;1727;42.624;23.406;2023-01-31T01:22:36;94421.66;;;1.89;82.28
3428;BME280;1727;42.624;23.406;2023-01-31T01:25:04;94428.31;;;1.93;82.32
3428;BME280;1727;42.624;23.406;2023-01-31T01:27:31;94424.81;;;1.94;82.73
3428;BME280;1727;42.624;23.406;2023-01-31T01:29:58;94408.66;;;1.91;83.33
3428;BME280;1727;42.624;23.406;2023-01-31T01:32:27;94418.72;;;1.95;82.90
3428;BME280;1727;42.624;23.406;2023-01-31T01:34:55;94414.09;;;2.00;82.52
3428;BME280;1727;42.624;23.406;2023-01-31T01:37:22;94416.59;;;2.02;82.95
3428;BME280;1727;42.624;23.406;2023-01-31T01:39:49;94400.00;;;2.06;82.94
3428;BME280;1727;42.624;23.406;2023-01-31T01:42:17;94403.31;;;2.08;82.94
3428;BME280;1727;42.624;23.406;2023-01-31T01:44:48;94387.78;;;2.08;82.43
3428;BME280;1727;42.624;23.406;2023-01-31T01:47:22;94382.06;;;2.03;82.72
3428;BME280;1727;42.624;23.406;2023-01-31T01:49:55;94374.09;;;1.92;82.70
3428;BME280;1727;42.624;23.406;2023-01-31T01:52:25;94391.09;;;1.96;83.42
3428;BME280;1727;42.624;23.406;2023-01-31T01:54:56;94396.09;;;1.84;83.71
3428;BME280;1727;42.624;23.406;2023-01-31T01:57:29;94381.94;;;1.76;83.65
3428;BME280;1727;42.624;23.406;2023-01-31T02:00:03;94390.53;;;1.76;81.58
3428;BME280;1727;42.624;23.406;2023-01-31T02:02:34;94390.75;;;1.58;77.12
3428;BME280;1727;42.624;23.406;2023-01-31T02:05:04;94392.88;;;1.51;74.47
3428;BME280;1727;42.624;23.406;2023-01-31T02:07:32;94388.25;;;1.56;71.36
3428;BME280;1727;42.624;23.406;2023-01-31T02:10:02;94387.16;;;1.60;70.58
3428;BME280;1727;42.624;23.406;2023-01-31T02:12:31;94387.34;;;1.71;69.46
3428;BME280;1727;42.624;23.406;2023-01-31T02:14:59;94402.34;;;1.80;68.36
3428;BME280;1727;42.624;23.406;2023-01-31T02:17:27;94392.56;;;1.85;67.62
3428;BME280;1727;42.624;23.406;2023-01-31T02:20:07;94392.94;;;1.94;67.91
3428;BME280;1727;42.624;23.406;2023-01-31T02:22:40;94400.81;;;2.06;66.33
3428;BME280;1727;42.624;23.406;2023-01-31T02:25:40;94397.22;;;2.09;65.71
3428;BME280;1727;42.624;23.406;2023-01-31T02:28:39;94395.56;;;2.08;64.62
3428;BME280;1727;42.624;23.406;2023-01-31T02:31:54;94398.97;;;2.08;64.95
3428;BME280;1727;42.624;23.406;2023-01-31T02:34:30;94389.63;;;2.06;65.23
3428;BME280;1727;42.624;23.406;2023-01-31T02:37:09;94382.97;;;2.02;64.07
3428;BME280;1727;42.624;23.406;2023-01-31T02:39:44;94370.13;;;2.00;65.52
3428;BME280;1727;42.624;23.406;2023-01-31T02:42:21;94382.13;;;2.01;64.02
3428;BME280;1727;42.624;23.406;2023-01-31T02:44:55;94395.00;;;2.03;64.14
3428;BME280;1727;42.624;23.406;2023-01-31T02:47:32;94389.97;;;2.00;63.83
3428;BME280;1727;42.624;23.406;2023-01-31T02:50:10;94392.66;;;1.98;65.00
3428;BME280;1727;42.624;23.406;2023-01-31T02:52:44;94394.41;;;1.98;65.16
3428;BME280;1727;42.624;23.406;2023-01-31T02:55:17;94385.91;;;1.96;65.03
3428;BME280;1727;42.624;23.406;2023-01-31T02:58:05;94401.16;;;2.00;64.68
3428;BME280;1727;42.624;23.406;2023-01-31T03:00:35;94405.41;;;2.01;66.64
3428;BME280;1727;42.624;23.406;2023-01-31T03:03:05;94420.00;;;2.02;66.17
3428;BME280;1727;42.624;23.406;2023-01-31T03:05:34;94418.34;;;2.01;66.29
3428;BME280;1727;42.624;23.406;2023-01-31T03:08:02;94424.44;;;2.00;66.08
3428;BME280;1727;42.624;23.406;2023-01-31T03:10:43;94429.72;;;1.99;66.97
3428;BME280;1727;42.624;23.406;2023-01-31T03:16:17;94441.56;;;2.03;70.08
3428;BME280;1727;42.624;23.406;2023-01-31T03:19:06;94443.25;;;2.04;68.29
3428;BME280;1727;42.624;23.406;2023-01-31T03:21:43;94453.00;;;1.99;68.60
3428;BME280;1727;42.624;23.406;2023-01-31T03:24:12;94447.81;;;1.99;70.60
3428;BME280;1727;42.624;23.406;2023-01-31T03:26:40;94448.00;;;1.96;70.06
3428;BME280;1727;42.624;23.406;2023-01-31T03:29:09;94451.78;;;1.90;71.13
3428;BME280;1727;42.624;23.406;2023-01-31T03:31:42;94457.63;;;1.94;72.51
3428;BME280;1727;42.624;23.406;2023-01-31T03:34:12;94460.22;;;1.94;72.29
3428;BME280;1727;42.624;23.406;2023-01-31T03:36:51;94464.63;;;1.92;73.53
3428;BME280;1727;42.624;23.406;2023-01-31T03:39:28;94460.22;;;1.94;73.85
3428;BME280;1727;42.624;23.406;2023-01-31T03:42:02;94459.19;;;1.96;75.15
3428;BME280;1727;42.624;23.406;2023-01-31T03:44:38;94462.44;;;2.00;76.49
3428;BME280;1727;42.624;23.406;2023-01-31T03:47:12;94467.88;;;1.95;76.61
3428;BME280;1727;42.624;23.406;2023-01-31T03:49:42;94478.03;;;1.84;76.93
3428;BME280;1727;42.624;23.406;2023-01-31T03:52:12;94493.28;;;1.89;77.84
3428;BME280;1727;42.624;23.406;2023-01-31T03:54:47;94495.69;;;1.92;80.12
3428;BME280;1727;42.624;23.406;2023-01-31T03:57:19;94477.19;;;1.83;80.24
3428;BME280;1727;42.624;23.406;2023-01-31T03:59:50;94496.03;;;1.85;79.34
3428;BME280;1727;42.624;23.406;2023-01-31T04:02:21;94490.81;;;1.71;80.40
3428;BME280;1727;42.624;23.406;2023-01-31T04:04:52;94482.00;;;1.60;81.14
3428;BME280;1727;42.624;23.406;2023-01-31T04:07:23;94480.34;;;1.59;80.91
3428;BME280;1727;42.624;23.406;2023-01-31T04:09:49;94501.31;;;1.68;82.48
3428;BME280;1727;42.624;23.406;2023-01-31T04:12:16;94499.09;;;1.62;82.65
3428;BME280;1727;42.624;23.406;2023-01-31T04:14:43;94502.69;;;1.60;82.88
3428;BME280;1727;42.624;23.406;2023-01-31T04:17:10;94496.78;;;1.58;83.76
3428;BME280;1727;42.624;23.406;2023-01-31T04:19:36;94487.78;;;1.49;83.49
3428;BME280;1727;42.624;23.406;2023-01-31T04:22:03;94504.69;;;1.54;84.69
3428;BME280;1727;42.624;23.406;2023-01-31T04:24:32;94508.78;;;1.59;85.41
3428;BME280;1727;42.624;23.406;2023-01-31T04:26:59;94522.28;;;1.64;86.49
3428;BME280;1727;42.624;23.406;2023-01-31T04:29:25;94513.28;;;1.55;85.34
3428;BME280;1727;42.624;23.406;2023-01-31T04:31:52;94508.50;;;1.63;87.36
3428;BME280;1727;42.624;23.406;2023-01-31T04:34:19;94515.44;;;1.63;86.21
3428;BME280;1727;42.624;23.406;2023-01-31T04:36:46;94519.13;;;1.59;86.54
3428;BME280;1727;42.624;23.406;2023-01-31T04:39:12;94517.94;;;1.64;86.82
3428;BME280;1727;42.624;23.406;2023-01-31T04:41:41;94518.28;;;1.74;87.79
3428;BME280;1727;42.624;23.406;2023-01-31T04:44:08;94522.19;;;1.65;86.48
3428;BME280;1727;42.624;23.406;2023-01-31T04:46:36;94524.13;;;1.62;86.46
3428;BME280;1727;42.624;23.406;2023-01-31T04:49:03;94540.06;;;1.54;87.07
3428;BME280;1727;42.624;23.406;2023-01-31T04:51:29;94540.41;;;1.48;88.03
3428;BME280;1727;42.624;23.406;2023-01-31T04:53:56;94542.66;;;1.38;87.95
3428;BME280;1727;42.624;23.406;2023-01-31T04:56:23;94538.66;;;1.33;88.85
3428;BME280;1727;42.624;23.406;2023-01-31T04:58:51;94546.56;;;1.30;89.26
3428;BME280;1727;42.624;23.406;2023-01-31T05:01:18;94536.50;;;1.25;89.32
3428;BME280;1727;42.624;23.406;2023-01-31T05:03:45;94550.00;;;1.30;89.78
3428;BME280;1727;42.624;23.406;2023-01-31T05:06:12;94554.25;;;1.31;89.33
3428;BME280;1727;42.624;23.406;2023-01-31T05:08:38;94545.66;;;1.31;89.43
3428;BME280;1727;42.624;23.406;2023-01-31T05:11:06;94546.94;;;2.15;100.00
3428;BME280;1727;42.624;23.406;2023-01-31T05:13:33;94547.88;;;3.56;100.00
3428;BME280;1727;42.624;23.406;2023-01-31T05:16:05;94551.28;;;4.50;85.69
3428;BME280;1727;42.624;23.406;2023-01-31T05:18:32;94564.22;;;3.85;76.58
3428;BME280;1727;42.624;23.406;2023-01-31T05:20:59;94567.09;;;3.39;78.13
3428;BME280;1727;42.624;23.406;2023-01-31T05:23:26;94557.03;;;3.21;78.81
3428;BME280;1727;42.624;23.406;2023-01-31T05:25:53;94554.00;;;3.00;79.62
3428;BME280;1727;42.624;23.406;2023-01-31T05:28:20;94558.31;;;2.57;82.06
3428;BME280;1727;42.624;23.406;2023-01-31T05:30:48;94554.66;;;2.31;82.97
3428;BME280;1727;42.624;23.406;2023-01-31T05:33:16;94553.31;;;2.09;83.89
3428;BME280;1727;42.624;23.406;2023-01-31T05:35:45;94557.59;;;1.95;85.91
3428;BME280;1727;42.624;23.406;2023-01-31T05:38:12;94559.88;;;1.85;85.94
3428;BME280;1727;42.624;23.406;2023-01-31T05:40:38;94566.22;;;1.79;86.02
3428;BME280;1727;42.624;23.406;2023-01-31T05:43:05;94573.47;;;1.73;87.13
3428;BME280;1727;42.624;23.406;2023-01-31T05:45:32;94587.66;;;1.66;86.73
3428;BME280;1727;42.624;23.406;2023-01-31T05:47:59;94586.34;;;1.74;86.84
3428;BME280;1727;42.624;23.406;2023-01-31T05:50:27;94591.19;;;1.80;86.60
3428;BME280;1727;42.624;23.406;2023-01-31T05:52:56;94580.84;;;1.80;86.17
3428;BME280;1727;42.624;23.406;2023-01-31T05:55:24;94588.03;;;1.75;86.22
3428;BME280;1727;42.624;23.406;2023-01-31T05:57:51;94585.25;;;1.78;86.06
3428;BME280;1727;42.624;23.406;2023-01-31T06:00:19;94583.59;;;1.77;85.77
3428;BME280;1727;42.624;23.406;2023-01-31T06:02:46;94583.25;;;1.83;86.00
3428;BME280;1727;42.624;23.406;2023-01-31T06:05:13;94595.00;;;1.89;85.92
3428;BME280;1727;42.624;23.406;2023-01-31T06:07:42;94587.63;;;1.97;85.95
3428;BME280;1727;42.624;23.406;2023-01-31T06:10:10;94588.63;;;1.95;84.98
3428;BME280;1727;42.624;23.406;2023-01-31T06:12:38;94587.53;;;1.99;84.89
3428;BME280;1727;42.624;23.406;2023-01-31T06:15:05;94581.44;;;2.00;86.07
3428;BME280;1727;42.624;23.406;2023-01-31T06:17:32;94594.25;;;2.03;86.88
3428;BME280;1727;42.624;23.406;2023-01-31T06:19:59;94581.97;;;2.06;86.11
3428;BME280;1727;42.624;23.406;2023-01-31T06:22:26;94587.31;;;2.03;85.86
3428;BME280;1727;42.624;23.406;2023-01-31T06:25:16;94583.28;;;1.98;86.80
3428;BME280;1727;42.624;23.406;2023-01-31T06:27:43;94590.47;;;1.93;87.17
3428;BME280;1727;42.624;23.406;2023-01-31T06:30:11;94577.63;;;1.91;87.17
3428;BME280;1727;42.624;23.406;2023-01-31T06:32:38;94588.16;;;2.04;90.27
3428;BME280;1727;42.624;23.406;2023-01-31T06:35:05;94588.44;;;2.13;91.89
3428;BME280;1727;42.624;23.406;2023-01-31T06:37:32;94594.28;;;2.17;92.46
3428;BME280;1727;42.624;23.406;2023-01-31T06:39:59;94583.22;;;2.29;94.99
3428;BME280;1727;42.624;23.406;2023-01-31T06:42:27;94592.44;;;2.19;89.84
3428;BME280;1727;42.624;23.406;2023-01-31T06:44:54;94584.47;;;2.08;88.70
3428;BME280;1727;42.624;23.406;2023-01-31T06:47:21;94588.63;;;2.10;88.98
3428;BME280;1727;42.624;23.406;2023-01-31T06:49:47;94600.56;;;2.13;89.82
3428;BME280;1727;42.624;23.406;2023-01-31T06:52:14;94594.81;;;2.08;89.19
3428;BME280;1727;42.624;23.406;2023-01-31T06:54:41;94604.16;;;2.10;91.71
3428;BME280;1727;42.624;23.406;2023-01-31T06:57:09;94613.66;;;2.10;90.29
3428;BME280;1727;42.624;23.406;2023-01-31T06:59:38;94602.66;;;2.06;91.04
3428;BME280;1727;42.624;23.406;2023-01-31T07:02:05;94618.84;;;2.10;90.90
3428;BME280;1727;42.624;23.406;2023-01-31T07:04:32;94611.25;;;2.07;90.40
3428;BME280;1727;42.624;23.406;2023-01-31T07:06:59;94604.97;;;2.11;89.58
3428;BME280;1727;42.624;23.406;2023-01-31T07:09:25;94617.94;;;2.11;88.93
3428;BME280;1727;42.624;23.406;2023-01-31T07:11:52;94615.16;;;2.14;88.95
3428;BME280;1727;42.624;23.406;2023-01-31T07:14:19;94608.06;;;2.17;88.55
3428;BME280;1727;42.624;23.406;2023-01-31T07:16:47;94603.63;;;2.20;88.54
3428;BME280;1727;42.624;23.406;2023-01-31T07:19:14;94598.50;;;2.34;95.16
3428;BME280;1727;42.624;23.406;2023-01-31T07:21:41;94602.00;;;2.33;88.93
3428;BME280;1727;42.624;23.406;2023-01-31T07:24:08;94608.69;;;2.37;88.12
3428;BME280;1727;42.624;23.406;2023-01-31T07:26:35;94620.06;;;2.34;88.60
3428;BME280;1727;42.624;23.406;2023-01-31T07:29:02;94619.31;;;2.32;87.34
3428;BME280;1727;42.624;23.406;2023-01-31T07:31:29;94621.81;;;2.34;87.16
3428;BME280;1727;42.624;23.406;2023-01-31T07:33:58;94614.13;;;2.32;88.08
3428;BME280;1727;42.624;23.406;2023-01-31T07:36:25;94614.59;;;2.39;89.81
3428;BME280;1727;42.624;23.406;2023-01-31T07:38:53;94621.81;;;2.34;88.37
3428;BME280;1727;42.624;23.406;2023-01-31T07:41:21;94630.97;;;2.39;88.21
3428;BME280;1727;42.624;23.406;2023-01-31T07:43:47;94626.91;;;2.35;88.05
3428;BME280;1727;42.624;23.406;2023-01-31T07:46:14;94616.19;;;2.41;90.82
3428;BME280;1727;42.624;23.406;2023-01-31T07:48:41;94611.91;;;2.40;90.21
3428;BME280;1727;42.624;23.406;2023-01-31T07:51:10;94622.75;;;2.47;90.05
3428;BME280;1727;42.624;23.406;2023-01-31T07:53:38;94632.09;;;2.49;89.55
3428;BME280;1727;42.624;23.406;2023-01-31T07:56:08;94629.25;;;2.54;89.48
3428;BME280;1727;42.624;23.406;2023-01-31T07:58:35;94631.56;;;2.59;89.81
3428;BME280;1727;42.624;23.406;2023-01-31T08:01:02;94631.22;;;2.65;89.17
3428;BME280;1727;42.624;23.406;2023-01-31T08:03:47;94634.19;;;2.73;88.77
3428;BME280;1727;42.624;23.406;2023-01-31T08:06:16;94631.63;;;2.87;90.17
3428;BME280;1727;42.624;23.406;2023-01-31T08:08:43;94626.28;;;2.90;89.03
3428;BME280;1727;42.624;23.406;2023-01-31T08:11:11;94615.91;;;2.90;88.73
3428;BME280;1727;42.624;23.406;2023-01-31T08:13:38;94625.44;;;2.90;88.60
3428;BME280;1727;42.624;23.406;2023-01-31T08:16:06;94629.53;;;2.94;88.83
3428;BME280;1727;42.624;23.406;2023-01-31T08:18:33;94626.09;;;2.93;88.56
3428;BME280;1727;42.624;23.406;2023-01-31T08:21:00;94621.47;;;2.98;89.10
3428;BME280;1727;42.624;23.406;2023-01-31T08:23:29;94621.56;;;2.97;88.61
3428;BME280;1727;42.624;23.406;2023-01-31T08:26:00;94619.06;;;2.95;88.28
3428;BME280;1727;42.624;23.406;2023-01-31T08:28:27;94622.41;;;2.97;87.52
3428;BME280;1727;42.624;23.406;2023-01-31T08:30:54;94626.66;;;2.98;87.51
3428;BME280;1727;42.624;23.406;2023-01-31T08:33:21;94626.47;;;3.01;87.22
3428;BME280;1727;42.624;23.406;2023-01-31T08:35:47;94625.72;;;2.99;87.66
3428;BME280;1727;42.624;23.406;2023-01-31T08:38:14;94622.84;;;3.04;86.87
3428;BME280;1727;42.624;23.406;2023-01-31T08:40:43;94621.56;;;3.11;87.04
3428;BME280;1727;42.624;23.406;2023-01-31T08:43:10;94625.09;;;3.24;89.11
3428;BME280;1727;42.624;23.406;2023-01-31T08:45:37;94629.63;;;3.21;86.23
3428;BME280;1727;42.624;23.406;2023-01-31T08:48:04;94630.28;;;3.24;86.79
3428;BME280;1727;42.624;23.406;2023-01-31T08:50:31;94623.63;;;3.20;86.16
3428;BME280;1727;42.624;23.406;2023-01-31T08:53:00;94627.19;;;3.18;86.95
3428;BME280;1727;42.624;23.406;2023-01-31T08:55:28;94618.78;;;3.14;87.43
3428;BME280;1727;42.624;23.406;2023-01-31T08:57:57;94619.53;;;3.30;91.83
3428;BME280;1727;42.624;23.406;2023-01-31T09:00:23;94617.19;;;3.40;89.31
3428;BME280;1727;42.624;23.406;2023-01-31T09:02:51;94616.25;;;3.41;86.54
3428;BME280;1727;42.624;23.406;2023-01-31T09:05:18;94609.22;;;3.43;85.00
3428;BME280;1727;42.624;23.406;2023-01-31T09:07:45;94607.09;;;3.35;86.31
3428;BME280;1727;42.624;23.406;2023-01-31T09:10:12;94618.03;;;3.40;86.78
3428;BME280;1727;42.624;23.406;2023-01-31T09:12:39;94612.84;;;3.55;88.32
3428;BME280;1727;42.624;23.406;2023-01-31T09:15:08;94616.63;;;3.63;86.88
3428;BME280;1727;42.624;23.406;2023-01-31T09:17:34;94616.38;;;3.54;84.36
3428;BME280;1727;42.624;23.406;2023-01-31T09:20:01;94618.03;;;3.55;84.67
3428;BME280;1727;42.624;23.406;2023-01-31T09:22:31;94616.75;;;3.48;83.94
3428;BME280;1727;42.624;23.406;2023-01-31T09:24:58;94604.03;;;3.43;84.91
3428;BME280;1727;42.624;23.406;2023-01-31T09:27:25;94605.34;;;3.36;84.12
3428;BME280;1727;42.624;23.406;2023-01-31T09:29:51;94602.00;;;3.34;83.53
3428;BME280;1727;42.624;23.406;2023-01-31T09:32:20;94606.72;;;3.41;84.01
3428;BME280;1727;42.624;23.406;2023-01-31T09:34:47;94607.47;;;3.43;84.78
3428;BME280;1727;42.624;23.406;2023-01-31T09:37:14;94605.34;;;3.50;82.51
3428;BME280;1727;42.624;23.406;2023-01-31T09:39:40;94605.06;;;3.55;83.25
3428;BME280;1727;42.624;23.406;2023-01-31T09:42:16;94597.72;;;3.61;82.53
3428;BME280;1727;42.624;23.406;2023-01-31T09:44:55;94587.53;;;3.58;82.23
3428;BME280;1727;42.624;23.406;2023-01-31T09:47:25;94588.63;;;3.68;83.20
3428;BME280;1727;42.624;23.406;2023-01-31T09:49:57;94595.84;;;3.63;81.86
3428;BME280;1727;42.624;23.406;2023-01-31T09:52:25;94590.03;;;3.60;82.48
3428;BME280;1727;42.624;23.406;2023-01-31T09:54:54;94596.41;;;3.68;82.88
3428;BME280;1727;42.624;23.406;2023-01-31T09:57:28;94585.91;;;3.70;81.77
3428;BME280;1727;42.624;23.406;2023-01-31T10:00:09;94581.00;;;3.80;80.63
3428;BME280;1727;42.624;23.406;2023-01-31T10:05:36;94582.00;;;4.04;83.22
3428;BME280;1727;42.624;23.406;2023-01-31T10:08:12;94579.69;;;4.14;79.55
3428;BME280;1727;42.624;23.406;2023-01-31T10:10:45;94584.41;;;4.34;79.41
3428;BME280;1727;42.624;23.406;2023-01-31T10:13:18;94579.84;;;4.50;78.39
3428;BME280;1727;42.624;23.406;2023-01-31T10:15:50;94582.34;;;4.52;79.63
3428;BME280;1727;42.624;23.406;2023-01-31T10:18:25;94581.09;;;4.45;79.31
3428;BME280;1727;42.624;23.406;2023-01-31T10:20:56;94578.59;;;4.43;78.31
3428;BME280;1727;42.624;23.406;2023-01-31T10:23:27;94577.63;;;4.31;80.70
3428;BME280;1727;42.624;23.406;2023-01-31T10:25:59;94575.28;;;4.41;81.16
3428;BME280;1727;42.624;23.406;2023-01-31T10:28:32;94567.78;;;4.37;79.31
3428;BME280;1727;42.624;23.406;2023-01-31T10:31:05;94570.09;;;4.41;78.61
3428;BME280;1727;42.624;23.406;2023-01-31T10:33:41;94561.31;;;4.29;77.64
3428;BME280;1727;42.624;23.406;2023-01-31T10:36:13;94559.13;;;4.23;77.80
3428;BME280;1727;42.624;23.406;2023-01-31T10:38:53;94557.88;;;4.16;78.42
3428;BME280;1727;42.624;23.406;2023-01-31T10:41:32;94551.13;;;4.26;80.90
3428;BME280;1727;42.624;23.406;2023-01-31T10:44:02;94552.38;;;4.21;77.66
3428;BME280;1727;42.624;23.406;2023-01-31T10:46:31;94554.66;;;4.25;78.21
3428;BME280;1727;42.624;23.406;2023-01-31T10:48:59;94558.44;;;4.34;79.17
3428;BME280;1727;42.624;23.406;2023-01-31T10:51:39;94555.53;;;4.39;78.16
3428;BME280;1727;42.624;23.406;2023-01-31T10:54:20;94558.72;;;4.29;78.22
3428;BME280;1727;42.624;23.406;2023-01-31T10:56:51;94564.94;;;4.27;79.28
3428;BME280;1727;42.624;23.406;2023-01-31T10:59:22;94563.72;;;4.32;79.35
3428;BME280;1727;42.624;23.406;2023-01-31T11:01:50;94566.25;;;4.47;79.09
3428;BME280;1727;42.624;23.406;2023-01-31T11:04:25;94571.75;;;4.42;79.23
3428;BME280;1727;42.624;23.406;2023-01-31T11:06:53;94575.69;;;4.35;79.75
3428;BME280;1727;42.624;23.406;2023-01-31T11:09:21;94561.72;;;4.23;79.61
3428;BME280;1727;42.624;23.406;2023-01-31T11:11:54;94558.56;;;4.06;79.37
3428;BME280;1727;42.624;23.406;2023-01-31T11:14:21;94576.19;;;4.00;79.17
3428;BME280;1727;42.624;23.406;2023-01-31T11:16:48;94570.44;;;3.83;79.50
3428;BME280;1727;42.624;23.406;2023-01-31T11:19:29;94569.53;;;3.69;81.19
3428;BME280;1727;42.624;23.406;2023-01-31T11:21:58;94567.09;;;3.81;83.47
3428;BME280;1727;42.624;23.406;2023-01-31T11:24:27;94573.06;;;3.68;82.80
3428;BME280;1727;42.624;23.406;2023-01-31T11:26:57;94574.16;;;3.79;86.58
3428;BME280;1727;42.624;23.406;2023-01-31T11:29:27;94575.09;;;3.78;83.87
3428;BME280;1727;42.624;23.406;2023-01-31T11:31:56;94570.25;;;3.71;82.79
3428;BME280;1727;42.624;23.406;2023-01-31T11:34:26;94575.25;;;3.74;82.53
3428;BME280;1727;42.624;23.406;2023-01-31T11:37:02;94559.53;;;3.63;83.55
3428;BME280;1727;42.624;23.406;2023-01-31T11:39:31;94572.50;;;3.63;83.63
3428;BME280;1727;42.624;23.406;2023-01-31T11:42:04;94570.13;;;3.60;84.52
3428;BME280;1727;42.624;23.406;2023-01-31T11:44:32;94553.13;;;3.69;87.92
3428;BME280;1727;42.624;23.406;2023-01-31T11:47:01;94566.19;;;3.67;84.97
3428;BME280;1727;42.624;23.406;2023-01-31T11:49:32;94556.56;;;3.69;86.60
3428;BME280;1727;42.624;23.406;2023-01-31T11:52:02;94557.34;;;3.84;87.20
3428;BME280;1727;42.624;23.406;2023-01-31T11:54:40;94549.91;;;3.92;86.32
3428;BME280;1727;42.624;23.406;2023-01-31T11:57:13;94553.84;;;3.98;86.45
3428;BME280;1727;42.624;23.406;2023-01-31T11:59:41;94554.25;;;3.92;87.82
3428;BME280;1727;42.624;23.406;2023-01-31T12:02:25;94556.56;;;3.96;87.75
3428;BME280;1727;42.624;23.406;2023-01-31T12:04:55;94556.53;;;3.84;88.24
3428;BME280;1727;42.624;23.406;2023-01-31T12:07:24;94560.59;;;3.88;90.03
3428;BME280;1727;42.624;23.406;2023-01-31T12:09:51;94559.03;;;3.85;90.29
3428;BME280;1727;42.624;23.406;2023-01-31T12:12:26;94562.66;;;3.68;90.42
3428;BME280;1727;42.624;23.406;2023-01-31T12:14:55;94567.13;;;3.66;91.85
3428;BME280;1727;42.624;23.406;2023-01-31T12:17:27;94568.84;;;3.53;91.18
3428;BME280;1727;42.624;23.406;2023-01-31T12:20:15;94557.34;;;3.43;91.03
3428;BME280;1727;42.624;23.406;2023-01-31T12:22:49;94567.19;;;3.38;91.54
3428;BME280;1727;42.624;23.406;2023-01-31T12:25:25;94552.94;;;3.31;91.72
3428;BME280;1727;42.624;23.406;2023-01-31T12:28:05;94562.88;;;3.24;91.70
3428;BME280;1727;42.624;23.406;2023-01-31T12:30:52;94550.84;;;3.23;92.00
3428;BME280;1727;42.624;23.406;2023-01-31T12:33:41;94566.19;;;3.26;90.85
3428;BME280;1727;42.624;23.406;2023-01-31T12:36:33;94573.13;;;3.26;89.95
3428;BME280;1727;42.624;23.406;2023-01-31T12:39:14;94566.66;;;3.33;90.84
3428;BME280;1727;42.624;23.406;2023-01-31T12:41:50;94565.56;;;3.23;89.77
3428;BME280;1727;42.624;23.406;2023-01-31T12:44:40;94568.88;;;3.25;89.23
3428;BME280;1727;42.624;23.406;2023-01-31T12:50:25;94555.63;;;3.29;89.04
3428;BME280;1727;42.624;23.406;2023-01-31T12:53:19;94557.00;;;3.35;89.95
3428;BME280;1727;42.624;23.406;2023-01-31T12:55:55;94550.06;;;3.35;89.85
3428;BME280;1727;42.624;23.406;2023-01-31T12:58:37;94548.19;;;3.37;89.39
3428;BME280;1727;42.624;23.406;2023-01-31T13:01:10;94560.03;;;3.41;88.05
3428;BME280;1727;42.624;23.406;2023-01-31T13:03:58;94556.41;;;3.44;87.77
3428;BME280;1727;42.624;23.406;2023-01-31T13:06:32;94569.28;;;3.46;88.44
3428;BME280;1727;42.624;23.406;2023-01-31T13:09:05;94577.56;;;3.52;90.36
3428;BME280;1727;42.624;23.406;2023-01-31T13:11:38;94574.03;;;3.53;90.27
3428;BME280;1727;42.624;23.406;2023-01-31T13:14:11;94583.47;;;3.40;92.30
3428;BME280;1727;42.624;23.406;2023-01-31T13:16:42;94567.56;;;3.18;93.79
3428;BME280;1727;42.624;23.406;2023-01-31T13:19:14;94576.84;;;3.07;95.28
3428;BME280;1727;42.624;23.406;2023-01-31T13:21:45;94581.75;;;2.98;95.94
3428;BME280;1727;42.624;23.406;2023-01-31T13:24:17;94576.28;;;3.02;95.93
3428;BME280;1727;42.624;23.406;2023-01-31T13:26:48;94593.50;;;3.03;94.21
3428;BME280;1727;42.624;23.406;2023-01-31T13:29:18;94583.03;;;3.05;92.33
3428;BME280;1727;42.624;23.406;2023-01-31T13:31:59;94589.06;;;3.20;93.39
3428;BME280;1727;42.624;23.406;2023-01-31T13:34:33;94587.56;;;3.30;90.66
3428;BME280;1727;42.624;23.406;2023-01-31T13:37:03;94593.78;;;3.27;89.71
3428;BME280;1727;42.624;23.406;2023-01-31T13:39:38;94589.81;;;3.22;89.65
3428;BME280;1727;42.624;23.406;2023-01-31T13:42:05;94596.03;;;3.19;90.50
3428;BME280;1727;42.624;23.406;2023-01-31T13:44:32;94604.16;;;3.13;90.39
3428;BME280;1727;42.624;23.406;2023-01-31T13:47:02;94594.34;;;3.04;91.06
3428;BME280;1727;42.624;23.406;2023-01-31T13:49:34;94592.50;;;3.20;93.96